createdAt,value
2023-04-24T00:02:07.931Z,58.42
2023-04-24T00:04:34.915Z,57.75
2023-04-24T00:07:01.631Z,57.87
2023-04-24T00:09:28.288Z,58.05
2023-04-24T00:11:55.017Z,58.24
2023-04-24T00:14:21.784Z,57.92
2023-04-24T00:16:48.471Z,57.97
2023-04-24T00:19:15.171Z,58.31
2023-04-24T00:21:42.589Z,58.15
2023-04-24T00:24:12.137Z,58.20
2023-04-24T00:26:38.831Z,58.71
2023-04-24T00:29:08.591Z,58.80
2023-04-24T00:31:38.265Z,58.18
2023-04-24T00:34:05.812Z,58.63
2023-04-24T00:36:33.046Z,58.65
2023-04-24T00:38:59.679Z,58.19
2023-04-24T00:41:26.686Z,58.52
2023-04-24T00:43:53.660Z,58.88
2023-04-24T00:46:20.725Z,58.34
2023-04-24T00:48:47.530Z,58.46
2023-04-24T00:51:14.502Z,59.07
2023-04-24T00:53:41.253Z,58.70
2023-04-24T00:56:07.941Z,58.64
2023-04-24T00:58:34.674Z,58.91
2023-04-24T01:01:03.526Z,59.01
2023-04-24T01:03:33.038Z,58.60
2023-04-24T01:06:00.259Z,57.83
2023-04-24T01:08:29.193Z,58.44
2023-04-24T01:10:58.951Z,58.88
2023-04-24T01:13:25.671Z,58.67
2023-04-24T01:15:52.405Z,58.85
2023-04-24T01:18:19.489Z,58.49
2023-04-24T01:20:47.748Z,58.73
2023-04-24T01:23:14.951Z,58.86
2023-04-24T01:25:42.028Z,58.52
2023-04-24T01:28:09.211Z,59.21
2023-04-24T01:30:35.902Z,59.22
2023-04-24T01:33:03.622Z,59.21
2023-04-24T01:35:30.532Z,59.49
2023-04-24T01:37:57.261Z,60.01
2023-04-24T01:40:25.157Z,59.37
2023-04-24T01:42:52.582Z,59.62
2023-04-24T01:45:19.546Z,59.36
2023-04-24T01:47:47.646Z,59.88
2023-04-24T01:50:14.438Z,59.79
2023-04-24T01:52:41.176Z,59.38
2023-04-24T01:55:10.586Z,59.32
2023-04-24T01:57:38.300Z,59.38
2023-04-24T02:00:05.875Z,59.59
2023-04-24T02:02:45.678Z,59.30
2023-04-24T02:05:14.147Z,59.59
2023-04-24T02:07:43.922Z,59.36
2023-04-24T02:10:10.780Z,59.65
2023-04-24T02:12:42.277Z,59.09
2023-04-24T02:15:09.266Z,59.52
2023-04-24T02:17:37.751Z,59.22
2023-04-24T02:20:05.713Z,59.22
2023-04-24T02:22:32.384Z,59.51
2023-04-24T02:25:02.572Z,58.66
2023-04-24T02:27:29.238Z,59.19
2023-04-24T02:29:57.708Z,59.00
2023-04-24T02:32:24.708Z,58.91
2023-04-24T02:34:51.646Z,59.31
2023-04-24T02:37:18.392Z,59.71
2023-04-24T02:39:45.149Z,60.62
2023-04-24T02:42:12.102Z,61.60
2023-04-24T02:44:38.777Z,63.29
2023-04-24T02:47:05.587Z,64.51
2023-04-24T02:49:32.355Z,65.32
2023-04-24T02:51:59.020Z,66.04
2023-04-24T02:54:25.994Z,65.53
2023-04-24T02:56:52.793Z,65.52
2023-04-24T02:59:19.500Z,65.09
2023-04-24T03:01:49.194Z,65.01
2023-04-24T03:04:16.739Z,64.37
2023-04-24T03:06:43.927Z,63.67
2023-04-24T03:09:10.592Z,63.36
2023-04-24T03:11:37.409Z,62.71
2023-04-24T03:14:04.110Z,62.89
2023-04-24T03:16:30.854Z,62.79
2023-04-24T03:18:57.585Z,62.43
2023-04-24T03:21:27.566Z,62.36
2023-04-24T03:23:54.442Z,62.40
2023-04-24T03:26:21.176Z,61.36
2023-04-24T03:29:02.688Z,60.85
2023-04-24T03:31:29.441Z,60.40
2023-04-24T03:33:56.124Z,60.25
2023-04-24T03:36:27.187Z,60.06
2023-04-24T03:38:55.297Z,59.64
2023-04-24T03:41:44.645Z,59.58
2023-04-24T03:44:18.726Z,59.44
2023-04-24T03:46:45.692Z,58.94
2023-04-24T03:49:12.595Z,58.92
2023-04-24T03:51:43.066Z,58.43
2023-04-24T03:54:17.470Z,58.63
2023-04-24T03:56:48.180Z,58.39
2023-04-24T03:59:15.398Z,58.57
2023-04-24T04:01:46.443Z,58.35
2023-04-24T04:04:16.103Z,58.86
2023-04-24T04:06:45.127Z,58.20
2023-04-24T04:09:11.899Z,58.57
2023-04-24T04:11:38.608Z,58.05
2023-04-24T04:14:06.366Z,58.38
2023-04-24T04:16:34.953Z,58.29
2023-04-24T04:19:04.162Z,58.67
2023-04-24T04:21:32.317Z,58.41
2023-04-24T04:24:10.659Z,58.92
2023-04-24T04:26:41.721Z,58.86
2023-04-24T04:29:11.753Z,59.35
2023-04-24T04:31:42.188Z,59.09
2023-04-24T04:34:13.624Z,58.67
2023-04-24T04:36:42.317Z,58.28
2023-04-24T04:39:22.322Z,58.48
2023-04-24T04:41:57.154Z,58.98
2023-04-24T04:44:30.378Z,58.95
2023-04-24T04:46:59.508Z,58.21
2023-04-24T04:49:29.602Z,57.94
2023-04-24T04:51:56.550Z,57.49
2023-04-24T04:54:25.961Z,57.66
2023-04-24T04:56:52.983Z,57.62
2023-04-24T04:59:19.933Z,56.89
2023-04-24T05:01:48.349Z,57.05
2023-04-24T05:04:16.871Z,56.35
2023-04-24T05:06:44.467Z,56.22
2023-04-24T05:09:11.367Z,55.74
2023-04-24T05:11:47.668Z,55.77
2023-04-24T05:14:14.603Z,55.49
2023-04-24T05:16:43.151Z,54.96
2023-04-24T05:19:11.785Z,54.66
2023-04-24T05:21:41.676Z,54.26
2023-04-24T05:24:09.660Z,54.12
2023-04-24T05:26:48.836Z,53.65
2023-04-24T05:29:20.598Z,53.94
2023-04-24T05:31:47.980Z,53.65
2023-04-24T05:34:17.059Z,53.40
2023-04-24T05:36:45.632Z,53.49
2023-04-24T05:39:12.766Z,53.37
2023-04-24T05:41:39.428Z,53.31
2023-04-24T05:44:06.314Z,53.25
2023-04-24T05:46:33.308Z,53.38
2023-04-24T05:49:00.052Z,52.44
2023-04-24T05:51:26.994Z,51.67
2023-04-24T05:53:53.955Z,51.86
2023-04-24T05:56:21.607Z,51.56
2023-04-24T05:58:49.817Z,52.14
2023-04-24T06:01:16.772Z,51.55
2023-04-24T06:03:47.202Z,51.80
2023-04-24T06:06:14.468Z,51.69
2023-04-24T06:08:43.548Z,51.42
2023-04-24T06:11:10.867Z,51.58
2023-04-24T06:13:38.734Z,50.97
2023-04-24T06:16:34.843Z,51.27
2023-04-24T06:19:08.849Z,51.32
2023-04-24T06:21:36.128Z,51.22
2023-04-24T06:24:03.311Z,50.46
2023-04-24T06:26:30.295Z,50.62
2023-04-24T06:28:57.313Z,50.88
2023-04-24T06:31:24.046Z,50.27
2023-04-24T06:33:50.951Z,50.64
2023-04-24T06:36:18.179Z,51.01
2023-04-24T06:38:45.039Z,51.23
2023-04-24T06:41:11.864Z,52.49
2023-04-24T06:43:38.586Z,52.82
2023-04-24T06:46:05.880Z,53.35
2023-04-24T06:48:32.706Z,54.76
2023-04-24T06:50:59.367Z,55.12
2023-04-24T06:53:26.289Z,55.09
2023-04-24T06:55:53.228Z,54.45
2023-04-24T06:58:19.866Z,53.92
2023-04-24T07:00:46.795Z,52.99
2023-04-24T07:03:13.590Z,52.58
2023-04-24T07:05:41.053Z,52.11
2023-04-24T07:08:07.854Z,50.81
2023-04-24T07:10:36.725Z,49.95
2023-04-24T07:13:03.723Z,50.07
2023-04-24T07:15:30.803Z,48.18
2023-04-24T07:17:57.483Z,46.30
2023-04-24T07:20:24.266Z,46.57
2023-04-24T07:22:50.925Z,47.22
2023-04-24T07:25:17.611Z,47.86
2023-04-24T07:27:44.364Z,48.74
2023-04-24T07:30:11.791Z,48.56
2023-04-24T07:32:38.501Z,48.42
2023-04-24T07:35:05.698Z,47.87
2023-04-24T07:37:32.834Z,47.62
2023-04-24T07:39:59.646Z,47.46
2023-04-24T07:42:26.357Z,48.31
2023-04-24T07:44:53.065Z,48.85
2023-04-24T07:47:19.876Z,49.53
2023-04-24T07:49:46.828Z,49.19
2023-04-24T07:52:13.627Z,48.76
2023-04-24T07:54:40.428Z,48.79
2023-04-24T07:57:09.233Z,48.38
2023-04-24T07:59:36.108Z,47.33
2023-04-24T08:02:02.961Z,46.07
2023-04-24T08:04:29.776Z,45.22
2023-04-24T08:06:56.673Z,44.70
2023-04-24T08:09:23.634Z,44.05
2023-04-24T08:11:50.960Z,43.54
2023-04-24T08:14:17.635Z,43.51
2023-04-24T08:16:44.596Z,42.68
2023-04-24T08:19:11.280Z,42.99
2023-04-24T08:21:37.971Z,41.66
2023-04-24T08:24:08.046Z,41.11
2023-04-24T08:26:34.776Z,41.62
2023-04-24T08:29:01.843Z,42.30
2023-04-24T08:31:28.735Z,42.91
2023-04-24T08:33:55.588Z,42.91
2023-04-24T08:36:45.785Z,42.67
2023-04-24T08:39:14.099Z,38.46
2023-04-24T08:41:44.043Z,36.67
2023-04-24T08:44:11.718Z,35.14
2023-04-24T08:46:38.906Z,32.38
2023-04-24T08:49:06.087Z,32.16
2023-04-24T08:51:33.077Z,33.59
2023-04-24T08:53:59.893Z,35.47
2023-04-24T08:56:28.069Z,36.45
2023-04-24T08:58:55.761Z,37.56
2023-04-24T09:01:26.279Z,38.05
2023-04-24T09:03:55.403Z,38.94
2023-04-24T09:06:23.012Z,39.60
2023-04-24T09:08:55.073Z,40.07
2023-04-24T09:11:22.359Z,40.41
2023-04-24T09:13:49.611Z,40.84
2023-04-24T09:16:17.070Z,40.80
2023-04-24T09:18:43.926Z,40.61
2023-04-24T09:21:11.220Z,39.59
2023-04-24T09:23:38.045Z,40.05
2023-04-24T09:26:08.748Z,39.55
2023-04-24T09:28:40.367Z,38.75
2023-04-24T09:31:16.807Z,37.92
2023-04-24T09:33:59.075Z,37.55
2023-04-24T09:36:35.052Z,36.48
2023-04-24T09:39:03.288Z,36.30
2023-04-24T09:41:30.414Z,36.08
2023-04-24T09:43:57.971Z,36.35
2023-04-24T09:46:32.862Z,37.11
2023-04-24T09:49:13.924Z,38.03
2023-04-24T09:51:41.636Z,38.54
2023-04-24T09:54:19.594Z,39.09
2023-04-24T09:56:47.348Z,39.55
2023-04-24T09:59:15.353Z,38.70
2023-04-24T10:01:49.814Z,38.92
2023-04-24T10:04:19.330Z,36.62
2023-04-24T10:06:47.017Z,33.98
2023-04-24T10:09:14.855Z,34.33
2023-04-24T10:11:47.022Z,34.47
2023-04-24T10:14:15.866Z,35.79
2023-04-24T10:16:43.790Z,37.27
2023-04-24T10:19:11.944Z,37.15
2023-04-24T10:21:43.329Z,36.80
2023-04-24T10:24:11.086Z,30.41
2023-04-24T10:26:38.373Z,23.57
2023-04-24T10:29:10.828Z,18.96
2023-04-24T10:31:38.619Z,16.60
2023-04-24T10:34:10.065Z,15.72
2023-04-24T10:36:42.057Z,15.83
2023-04-24T10:39:12.644Z,15.98
2023-04-24T10:41:39.472Z,18.14
2023-04-24T10:44:11.291Z,20.26
2023-04-24T10:46:40.109Z,23.42
2023-04-24T10:49:09.625Z,25.90
2023-04-24T10:51:51.122Z,26.97
2023-04-24T10:54:37.365Z,29.12
2023-04-24T10:57:19.558Z,30.45
2023-04-24T10:59:47.845Z,30.38
2023-04-24T11:02:18.831Z,31.64
2023-04-24T11:04:49.214Z,32.51
2023-04-24T11:07:15.972Z,33.36
2023-04-24T11:09:44.488Z,33.75
2023-04-24T11:12:13.857Z,34.16
2023-04-24T11:14:59.728Z,34.20
2023-04-24T11:17:34.899Z,34.76
2023-04-24T11:20:19.427Z,34.37
2023-04-24T11:22:56.601Z,34.35
2023-04-24T11:25:23.803Z,33.98
2023-04-24T11:27:51.370Z,34.05
2023-04-24T11:30:20.347Z,33.32
2023-04-24T11:32:52.596Z,33.45
2023-04-24T11:35:29.033Z,33.84
2023-04-24T11:40:26.959Z,33.60
2023-04-24T11:42:57.548Z,33.20
2023-04-24T11:45:30.965Z,33.50
2023-04-24T11:47:58.387Z,34.36
2023-04-24T11:50:27.743Z,35.10
2023-04-24T11:52:55.103Z,35.71
2023-04-24T11:55:21.718Z,36.46
2023-04-24T11:57:50.597Z,37.33
2023-04-24T12:00:22.653Z,37.42
2023-04-24T12:02:51.265Z,37.13
2023-04-24T12:05:36.487Z,36.84
2023-04-24T12:08:03.579Z,35.20
2023-04-24T12:10:32.568Z,34.60
2023-04-24T12:13:01.025Z,34.37
2023-04-24T12:15:28.413Z,33.77
2023-04-24T12:17:57.001Z,33.67
2023-04-24T12:20:32.399Z,32.45
2023-04-24T12:23:01.145Z,31.60
2023-04-24T12:25:33.879Z,32.32
2023-04-24T12:28:07.163Z,32.77
2023-04-24T12:30:45.898Z,33.28
2023-04-24T12:33:13.354Z,33.69
2023-04-24T12:35:42.360Z,34.10
2023-04-24T12:38:15.016Z,33.98
2023-04-24T12:40:43.350Z,33.83
2023-04-24T12:43:20.688Z,34.03
2023-04-24T12:45:48.986Z,34.33
2023-04-24T12:48:15.848Z,34.77
2023-04-24T12:50:46.118Z,34.54
2023-04-24T12:53:13.546Z,33.97
2023-04-24T12:55:41.097Z,33.93
2023-04-24T12:58:07.906Z,34.03
2023-04-24T13:00:34.982Z,33.38
2023-04-24T13:03:03.005Z,33.41
2023-04-24T13:05:30.204Z,33.35
2023-04-24T13:07:58.409Z,33.72
2023-04-24T13:10:25.190Z,33.31
2023-04-24T13:12:51.999Z,33.95
2023-04-24T13:15:18.835Z,34.57
2023-04-24T13:17:45.679Z,34.73
2023-04-24T13:20:12.938Z,35.04
2023-04-24T13:22:39.646Z,34.27
2023-04-24T13:25:10.184Z,33.61
2023-04-24T13:27:39.451Z,32.71
2023-04-24T13:30:07.862Z,32.17
2023-04-24T13:32:36.542Z,31.91
2023-04-24T13:35:03.652Z,31.95
2023-04-24T13:37:30.469Z,31.69
2023-04-24T13:39:57.446Z,31.92
2023-04-24T13:42:24.453Z,31.87
2023-04-24T13:44:52.298Z,32.36
2023-04-24T13:47:19.064Z,32.75
2023-04-24T13:49:47.999Z,33.42
2023-04-24T13:52:15.157Z,33.81
2023-04-24T13:54:41.864Z,34.04
2023-04-24T13:57:08.968Z,34.52
2023-04-24T13:59:36.675Z,34.26
2023-04-24T14:02:03.544Z,34.28
2023-04-24T14:04:30.602Z,33.87
2023-04-24T14:06:57.464Z,33.92
2023-04-24T14:09:27.633Z,34.68
2023-04-24T14:11:54.597Z,35.04
2023-04-24T14:14:21.459Z,35.25
2023-04-24T14:16:49.510Z,35.70
2023-04-24T14:19:16.125Z,36.58
2023-04-24T14:21:42.900Z,36.40
2023-04-24T14:24:10.225Z,36.49
2023-04-24T14:26:37.076Z,36.64
2023-04-24T14:29:14.073Z,36.39
2023-04-24T14:31:41.584Z,36.14
2023-04-24T14:34:08.240Z,36.29
2023-04-24T14:36:35.099Z,36.53
2023-04-24T14:39:06.846Z,36.79
2023-04-24T14:41:36.649Z,36.96
2023-04-24T14:44:04.860Z,37.44
2023-04-24T14:46:31.804Z,37.07
2023-04-24T14:48:58.933Z,36.26
2023-04-24T14:51:26.512Z,36.23
2023-04-24T14:53:53.361Z,36.19
2023-04-24T14:56:21.278Z,36.35
2023-04-24T14:58:48.152Z,36.92
2023-04-24T15:01:15.131Z,37.89
2023-04-24T15:03:43.143Z,38.39
2023-04-24T15:06:10.001Z,39.19
2023-04-24T15:08:36.873Z,40.39
2023-04-24T15:11:03.636Z,41.61
2023-04-24T15:13:30.638Z,42.88
2023-04-24T15:15:57.376Z,43.11
2023-04-24T15:18:24.543Z,42.98
2023-04-24T15:20:51.640Z,43.07
2023-04-24T15:23:18.420Z,42.83
2023-04-24T15:25:45.364Z,42.52
2023-04-24T15:28:12.905Z,41.88
2023-04-24T15:30:39.599Z,41.10
2023-04-24T15:33:06.625Z,39.93
2023-04-24T15:35:37.701Z,39.02
2023-04-24T15:38:05.244Z,38.29
2023-04-24T15:40:32.113Z,38.55
2023-04-24T15:42:58.896Z,39.61
2023-04-24T15:45:26.223Z,40.14
2023-04-24T15:47:54.928Z,40.19
2023-04-24T15:50:22.842Z,39.95
2023-04-24T15:52:49.898Z,39.82
2023-04-24T15:55:16.704Z,40.51
2023-04-24T15:57:43.558Z,40.21
2023-04-24T16:00:12.400Z,40.26
2023-04-24T16:02:39.837Z,40.31
2023-04-24T16:05:07.802Z,40.23
2023-04-24T16:07:36.375Z,40.67
2023-04-24T16:10:03.561Z,40.83
2023-04-24T16:12:30.417Z,40.53
2023-04-24T16:14:57.172Z,40.02
2023-04-24T16:17:23.823Z,40.41
2023-04-24T16:19:50.522Z,39.63
2023-04-24T16:22:17.346Z,39.98
2023-04-24T16:24:44.648Z,40.07
2023-04-24T16:27:14.482Z,39.74
2023-04-24T16:29:41.251Z,39.65
2023-04-24T16:32:07.951Z,40.20
2023-04-24T16:34:34.630Z,40.11
2023-04-24T16:37:01.511Z,40.27
2023-04-24T16:39:28.364Z,40.02
2023-04-24T16:41:59.004Z,39.99
2023-04-24T16:44:26.693Z,39.75
2023-04-24T16:46:53.409Z,39.13
2023-04-24T16:49:20.359Z,38.96
2023-04-24T16:51:47.374Z,38.49
2023-04-24T16:54:14.133Z,38.61
2023-04-24T16:56:40.749Z,39.14
2023-04-24T16:59:08.264Z,39.16
2023-04-24T17:01:35.304Z,39.50
2023-04-24T17:04:02.090Z,39.24
2023-04-24T17:06:28.830Z,39.82
2023-04-24T17:08:55.803Z,39.47
2023-04-24T17:11:23.092Z,40.32
2023-04-24T17:13:49.918Z,39.76
2023-04-24T17:16:16.762Z,39.72
2023-04-24T17:18:45.297Z,40.08
2023-04-24T17:21:12.397Z,40.39
2023-04-24T17:23:39.214Z,40.31
2023-04-24T17:26:06.140Z,40.25
2023-04-24T17:28:33.936Z,40.56
2023-04-24T17:31:01.140Z,40.86
2023-04-24T17:33:29.246Z,40.82
2023-04-24T17:35:57.291Z,40.81
2023-04-24T17:38:24.615Z,41.45
2023-04-24T17:40:53.077Z,41.06
2023-04-24T17:43:21.009Z,41.48
2023-04-24T17:45:52.232Z,41.26
2023-04-24T17:48:19.881Z,41.80
2023-04-24T17:50:46.836Z,41.54
2023-04-24T17:53:13.760Z,41.94
2023-04-24T17:55:43.620Z,42.02
2023-04-24T17:58:11.162Z,42.54
2023-04-24T18:00:38.451Z,42.84
2023-04-24T18:03:06.901Z,42.67
2023-04-24T18:05:36.193Z,43.26
2023-04-24T18:08:03.645Z,43.10
2023-04-24T18:10:31.947Z,43.91
2023-04-24T18:12:59.649Z,43.73
2023-04-24T18:15:27.256Z,44.58
2023-04-24T18:17:56.696Z,44.67
2023-04-24T18:20:23.510Z,44.24
2023-04-24T18:22:50.310Z,44.98
2023-04-24T18:25:21.152Z,44.72
2023-04-24T18:27:47.905Z,45.16
2023-04-24T18:30:14.998Z,45.45
2023-04-24T18:32:42.277Z,45.08
2023-04-24T18:35:09.465Z,45.38
2023-04-24T18:37:36.198Z,45.25
2023-04-24T18:40:03.601Z,45.68
2023-04-24T18:42:30.564Z,45.15
2023-04-24T18:45:01.898Z,45.63
2023-04-24T18:47:29.363Z,45.51
2023-04-24T18:49:57.261Z,45.66
2023-04-24T18:52:24.997Z,45.71
2023-04-24T18:54:52.138Z,45.60
2023-04-24T18:57:18.913Z,45.75
2023-04-24T18:59:45.701Z,45.84
2023-04-24T19:02:12.724Z,45.97
2023-04-24T19:04:39.647Z,45.55
2023-04-24T19:07:07.011Z,45.90
2023-04-24T19:09:34.082Z,45.27
2023-04-24T19:12:01.897Z,45.24
2023-04-24T19:14:29.325Z,44.89
2023-04-24T19:16:56.088Z,44.74
2023-04-24T19:19:23.799Z,44.99
2023-04-24T19:21:50.739Z,44.76
2023-04-24T19:24:19.240Z,44.53
2023-04-24T19:26:46.274Z,44.98
2023-04-24T19:29:13.116Z,44.93
2023-04-24T19:31:39.861Z,45.07
2023-04-24T19:34:06.888Z,45.21
2023-04-24T19:36:34.018Z,45.82
2023-04-24T19:39:01.303Z,45.58
2023-04-24T19:41:28.139Z,46.18
2023-04-24T19:43:55.253Z,46.45
2023-04-24T19:46:22.830Z,46.90
2023-04-24T19:48:49.892Z,46.66
2023-04-24T19:51:16.794Z,47.08
2023-04-24T19:53:43.735Z,47.43
2023-04-24T19:56:10.546Z,47.46
2023-04-24T19:58:40.554Z,47.49
2023-04-24T20:01:07.574Z,47.76
2023-04-24T20:03:34.729Z,47.78
2023-04-24T20:06:02.415Z,48.09
2023-04-24T20:08:29.072Z,48.25
2023-04-24T20:10:57.878Z,48.11
2023-04-24T20:13:27.628Z,48.36
2023-04-24T20:15:54.699Z,48.34
2023-04-24T20:18:21.516Z,48.57
2023-04-24T20:20:48.271Z,48.41
2023-04-24T20:23:14.980Z,48.57
2023-04-24T20:25:41.656Z,48.70
2023-04-24T20:28:08.371Z,48.25
2023-04-24T20:30:35.129Z,48.15
2023-04-24T20:33:02.019Z,48.46
2023-04-24T20:35:28.770Z,48.40
2023-04-24T20:37:55.464Z,48.40
2023-04-24T20:40:22.294Z,48.20
2023-04-24T20:42:49.792Z,48.32
2023-04-24T20:45:17.946Z,48.37
2023-04-24T20:47:44.885Z,48.30
2023-04-24T20:50:12.034Z,48.00
2023-04-24T20:52:39.950Z,48.34
2023-04-24T20:55:09.776Z,48.32
2023-04-24T20:57:37.133Z,48.03
2023-04-24T21:00:07.925Z,48.58
2023-04-24T21:02:34.979Z,48.68
2023-04-24T21:05:01.810Z,48.83
2023-04-24T21:07:28.555Z,48.71
2023-04-24T21:09:55.249Z,49.16
2023-04-24T21:12:22.029Z,48.86
2023-04-24T21:14:50.942Z,48.86
2023-04-24T21:17:18.286Z,48.63
2023-04-24T21:19:45.005Z,49.13
2023-04-24T21:22:11.608Z,49.33
2023-04-24T21:24:38.229Z,49.66
2023-04-24T21:27:04.982Z,49.97
2023-04-24T21:29:33.088Z,50.53
2023-04-24T21:31:59.880Z,50.95
2023-04-24T21:34:26.665Z,50.71
2023-04-24T21:36:53.319Z,50.71
2023-04-24T21:39:20.074Z,50.40
2023-04-24T21:41:47.637Z,50.75
2023-04-24T21:44:14.883Z,50.85
2023-04-24T21:46:42.634Z,50.50
2023-04-24T21:49:09.611Z,50.20
2023-04-24T21:51:36.305Z,49.92
2023-04-24T21:54:02.990Z,49.52
2023-04-24T21:56:29.780Z,50.11
2023-04-24T21:58:57.101Z,50.07
2023-04-24T22:01:23.943Z,49.90
2023-04-24T22:03:50.996Z,49.77
2023-04-24T22:06:18.025Z,50.38
2023-04-24T22:08:47.614Z,51.06
2023-04-24T22:11:25.653Z,50.91
2023-04-24T22:13:54.173Z,50.86
2023-04-24T22:16:23.869Z,50.83
2023-04-24T22:18:53.703Z,50.90
2023-04-24T22:21:22.807Z,51.28
2023-04-24T22:23:50.095Z,50.78
2023-04-24T22:26:17.171Z,51.02
2023-04-24T22:28:43.865Z,51.03
2023-04-24T22:31:10.673Z,50.76
2023-04-24T22:33:37.661Z,50.99
2023-04-24T22:36:04.455Z,50.59
2023-04-24T22:38:31.278Z,50.84
2023-04-24T22:40:58.353Z,50.77
2023-04-24T22:43:27.249Z,51.66
2023-04-24T22:45:54.122Z,51.48
2023-04-24T22:48:20.948Z,51.58
2023-04-24T22:50:47.595Z,51.64
2023-04-24T22:53:15.659Z,51.74
2023-04-24T22:55:42.542Z,52.30
2023-04-24T22:58:09.492Z,52.38
2023-04-24T23:00:36.423Z,52.59
2023-04-24T23:03:03.523Z,52.75
2023-04-24T23:05:31.157Z,52.50
2023-04-24T23:07:57.808Z,53.27
2023-04-24T23:10:24.554Z,53.27
2023-04-24T23:12:51.527Z,53.33
2023-04-24T23:15:18.464Z,52.93
2023-04-24T23:17:45.497Z,53.13
2023-04-24T23:20:13.847Z,53.08
2023-04-24T23:22:44.342Z,52.96
2023-04-24T23:25:11.213Z,52.86
2023-04-24T23:27:38.173Z,53.02
2023-04-24T23:30:06.949Z,53.13
2023-04-24T23:32:35.078Z,52.86
2023-04-24T23:35:01.805Z,53.11
2023-04-24T23:37:28.531Z,52.90
2023-04-24T23:39:56.408Z,53.67
2023-04-24T23:42:23.141Z,53.60
2023-04-24T23:44:49.888Z,53.68
2023-04-24T23:47:16.542Z,53.37
2023-04-24T23:49:43.279Z,53.88
2023-04-24T23:52:10.458Z,54.51
2023-04-24T23:54:37.245Z,55.33
2023-04-24T23:57:04.561Z,56.44
2023-04-24T23:59:31.330Z,57.37
